sensor_id;sensor_type;location;lat;lon;timestamp;pressure;altitude;pressure_sealevel;temperature;humidity
70407;BME280;57821;52.202;0.154;2023-02-12T00:01:13;103814.31;;;8.86;75.50
70407;BME280;57821;52.202;0.154;2023-02-12T00:03:40;103819.50;;;8.86;74.96
70407;BME280;57821;52.202;0.154;2023-02-12T00:06:08;103812.41;;;8.82;75.22
70407;BME280;57821;52.202;0.154;2023-02-12T00:08:35;103809.91;;;8.84;75.76
70407;BME280;57821;52.202;0.154;2023-02-12T00:11:14;103806.09;;;8.77;75.71
70407;BME280;57821;52.202;0.154;2023-02-12T00:13:42;103808.81;;;8.80;75.64
70407;BME280;57821;52.202;0.154;2023-02-12T00:16:13;103802.53;;;8.75;75.86
70407;BME280;57821;52.202;0.154;2023-02-12T00:18:40;103812.25;;;8.79;75.48
70407;BME280;57821;52.202;0.154;2023-02-12T00:21:07;103813.84;;;8.77;75.21
70407;BME280;57821;52.202;0.154;2023-02-12T00:23:35;103813.84;;;8.77;75.25
70407;BME280;57821;52.202;0.154;2023-02-12T00:26:06;103799.00;;;8.73;75.55
70407;BME280;57821;52.202;0.154;2023-02-12T00:28:33;103807.06;;;8.79;75.67
70407;BME280;57821;52.202;0.154;2023-02-12T00:31:08;103807.06;;;8.79;75.24
70407;BME280;57821;52.202;0.154;2023-02-12T00:33:35;103808.69;;;8.77;75.45
70407;BME280;57821;52.202;0.154;2023-02-12T00:36:03;103800.91;;;8.77;75.43
70407;BME280;57821;52.202;0.154;2023-02-12T00:38:30;103800.91;;;8.77;75.41
70407;BME280;57821;52.202;0.154;2023-02-12T00:40:56;103803.50;;;8.77;75.53
70407;BME280;57821;52.202;0.154;2023-02-12T00:43:23;103804.97;;;8.72;75.79
70407;BME280;57821;52.202;0.154;2023-02-12T00:45:50;103812.00;;;8.75;75.42
70407;BME280;57821;52.202;0.154;2023-02-12T00:48:16;103812.06;;;8.76;75.69
70407;BME280;57821;52.202;0.154;2023-02-12T00:50:44;103811.75;;;8.70;75.54
70407;BME280;57821;52.202;0.154;2023-02-12T00:53:11;103811.94;;;8.73;75.52
70407;BME280;57821;52.202;0.154;2023-02-12T00:55:38;103806.75;;;8.73;75.75
70407;BME280;57821;52.202;0.154;2023-02-12T00:58:05;103815.47;;;8.75;75.38
70407;BME280;57821;52.202;0.154;2023-02-12T01:00:32;103818.84;;;8.74;75.42
70407;BME280;57821;52.202;0.154;2023-02-12T01:03:00;103807.63;;;8.74;75.81
70407;BME280;57821;52.202;0.154;2023-02-12T01:05:26;103812.72;;;8.72;75.42
70407;BME280;57821;52.202;0.154;2023-02-12T01:07:53;103811.75;;;8.70;75.66
70407;BME280;57821;52.202;0.154;2023-02-12T01:10:20;103811.75;;;8.70;75.61
70407;BME280;57821;52.202;0.154;2023-02-12T01:12:47;103806.59;;;8.70;75.43
70407;BME280;57821;52.202;0.154;2023-02-12T01:15:14;103798.72;;;8.69;75.54
70407;BME280;57821;52.202;0.154;2023-02-12T01:17:41;103799.47;;;8.66;75.93
70407;BME280;57821;52.202;0.154;2023-02-12T01:20:11;103801.88;;;8.63;75.90
70407;BME280;57821;52.202;0.154;2023-02-12T01:22:38;103801.09;;;8.64;76.00
70407;BME280;57821;52.202;0.154;2023-02-12T01:25:06;103804.47;;;8.63;75.84
70407;BME280;57821;52.202;0.154;2023-02-12T01:27:33;103799.16;;;8.60;76.29
70407;BME280;57821;52.202;0.154;2023-02-12T01:29:59;103805.13;;;8.59;75.99
70407;BME280;57821;52.202;0.154;2023-02-12T01:32:26;103807.63;;;8.57;76.16
70407;BME280;57821;52.202;0.154;2023-02-12T01:34:52;103812.75;;;8.56;76.47
70407;BME280;57821;52.202;0.154;2023-02-12T01:37:20;103805.69;;;8.53;76.32
70407;BME280;57821;52.202;0.154;2023-02-12T01:39:46;103797.84;;;8.52;76.59
70407;BME280;57821;52.202;0.154;2023-02-12T01:42:14;103809.00;;;8.51;76.70
70407;BME280;57821;52.202;0.154;2023-02-12T01:47:44;103803.81;;;8.51;76.42
70407;BME280;57821;52.202;0.154;2023-02-12T01:50:14;103803.69;;;8.48;76.67
70407;BME280;57821;52.202;0.154;2023-02-12T01:52:48;103809.84;;;8.50;76.85
70407;BME280;57821;52.202;0.154;2023-02-12T01:55:17;103798.34;;;8.45;76.67
70407;BME280;57821;52.202;0.154;2023-02-12T01:57:46;103809.00;;;8.51;76.23
70407;BME280;57821;52.202;0.154;2023-02-12T02:00:19;103811.53;;;8.49;76.49
70407;BME280;57821;52.202;0.154;2023-02-12T02:02:51;103823.63;;;8.50;76.55
70407;BME280;57821;52.202;0.154;2023-02-12T02:08:06;103808.38;;;8.55;76.54
70407;BME280;57821;52.202;0.154;2023-02-12T02:10:32;103803.19;;;8.55;76.57
70407;BME280;57821;52.202;0.154;2023-02-12T02:12:59;103808.28;;;8.53;76.07
70407;BME280;57821;52.202;0.154;2023-02-12T02:15:28;103809.00;;;8.51;75.89
70407;BME280;57821;52.202;0.154;2023-02-12T02:18:12;103810.78;;;8.52;76.36
70407;BME280;57821;52.202;0.154;2023-02-12T02:21:14;103809.84;;;8.50;76.79
70407;BME280;57821;52.202;0.154;2023-02-12T02:23:58;103808.84;;;8.48;76.63
70407;BME280;57821;52.202;0.154;2023-02-12T02:27:13;103806.84;;;8.42;76.97
70407;BME280;57821;52.202;0.154;2023-02-12T02:32:22;103803.44;;;8.43;76.92
70407;BME280;57821;52.202;0.154;2023-02-12T02:38:16;103795.59;;;8.42;76.93
70407;BME280;57821;52.202;0.154;2023-02-12T02:41:03;103792.69;;;8.36;77.03
70407;BME280;57821;52.202;0.154;2023-02-12T02:43:41;103807.53;;;8.40;76.92
70407;BME280;57821;52.202;0.154;2023-02-12T02:46:15;103807.47;;;8.38;77.04
70407;BME280;57821;52.202;0.154;2023-02-12T02:48:50;103798.75;;;8.36;76.84
70407;BME280;57821;52.202;0.154;2023-02-12T02:51:29;103795.72;;;8.29;77.09
70407;BME280;57821;52.202;0.154;2023-02-12T02:54:15;103811.59;;;8.35;76.77
70407;BME280;57821;52.202;0.154;2023-02-12T02:56:45;103804.63;;;8.34;77.02
70407;BME280;57821;52.202;0.154;2023-02-12T02:59:18;103795.63;;;8.27;76.99
70407;BME280;57821;52.202;0.154;2023-02-12T03:01:53;103807.84;;;8.30;76.99
70407;BME280;57821;52.202;0.154;2023-02-12T03:04:26;103804.25;;;8.27;77.46
70407;BME280;57821;52.202;0.154;2023-02-12T03:07:05;103798.06;;;8.24;77.61
70407;BME280;57821;52.202;0.154;2023-02-12T03:09:40;103815.59;;;8.30;77.55
70407;BME280;57821;52.202;0.154;2023-02-12T03:12:13;103806.03;;;8.29;77.51
70407;BME280;57821;52.202;0.154;2023-02-12T03:14:45;103809.44;;;8.27;77.64
70407;BME280;57821;52.202;0.154;2023-02-12T03:17:18;103808.41;;;8.24;78.04
70407;BME280;57821;52.202;0.154;2023-02-12T03:19:54;103806.78;;;8.26;77.53
70407;BME280;57821;52.202;0.154;2023-02-12T03:22:36;103794.66;;;8.25;77.48
70407;BME280;57821;52.202;0.154;2023-02-12T03:25:13;103788.28;;;8.18;78.13
70407;BME280;57821;52.202;0.154;2023-02-12T03:28:19;103795.38;;;8.22;77.69
70407;BME280;57821;52.202;0.154;2023-02-12T03:30:53;103792.09;;;8.25;77.97
70407;BME280;57821;52.202;0.154;2023-02-12T03:38:52;103794.56;;;8.23;77.16
70407;BME280;57821;52.202;0.154;2023-02-12T03:41:31;103797.00;;;8.20;77.44
70407;BME280;57821;52.202;0.154;2023-02-12T03:44:09;103797.91;;;8.21;77.93
70407;BME280;57821;52.202;0.154;2023-02-12T03:47:45;103798.75;;;8.21;77.49
70407;BME280;57821;52.202;0.154;2023-02-12T03:50:18;103790.94;;;8.20;77.68
70407;BME280;57821;52.202;0.154;2023-02-12T03:52:49;103783.81;;;8.16;77.84
70407;BME280;57821;52.202;0.154;2023-02-12T03:55:15;103791.00;;;8.21;77.50
70407;BME280;57821;52.202;0.154;2023-02-12T03:57:46;103788.28;;;8.18;77.79
70407;BME280;57821;52.202;0.154;2023-02-12T04:00:22;103781.16;;;8.14;78.21
70407;BME280;57821;52.202;0.154;2023-02-12T04:02:49;103798.75;;;8.21;77.54
70407;BME280;57821;52.202;0.154;2023-02-12T04:05:21;103797.00;;;8.20;78.32
70407;BME280;57821;52.202;0.154;2023-02-12T04:07:49;103802.09;;;8.19;78.34
70407;BME280;57821;52.202;0.154;2023-02-12T04:10:20;103798.44;;;8.15;78.04
70407;BME280;57821;52.202;0.154;2023-02-12T04:13:33;103804.75;;;8.20;77.69
70407;BME280;57821;52.202;0.154;2023-02-12T04:18:18;103801.84;;;8.14;78.00
70407;BME280;57821;52.202;0.154;2023-02-12T04:21:12;103807.16;;;8.17;78.09
70407;BME280;57821;52.202;0.154;2023-02-12T04:31:55;103822.59;;;8.16;78.49
70407;BME280;57821;52.202;0.154;2023-02-12T04:34:38;103813.78;;;8.12;78.28
70407;BME280;57821;52.202;0.154;2023-02-12T04:37:25;103826.84;;;8.15;77.90
70407;BME280;57821;52.202;0.154;2023-02-12T04:39:53;103823.41;;;8.15;77.73
70407;BME280;57821;52.202;0.154;2023-02-12T04:42:20;103824.28;;;8.15;77.92
70407;BME280;57821;52.202;0.154;2023-02-12T04:44:46;103824.28;;;8.15;77.88
70407;BME280;57821;52.202;0.154;2023-02-12T04:47:14;103821.69;;;8.15;77.77
70407;BME280;57821;52.202;0.154;2023-02-12T04:49:41;103834.63;;;8.15;77.46
70407;BME280;57821;52.202;0.154;2023-02-12T04:52:08;103831.22;;;8.16;77.63
70407;BME280;57821;52.202;0.154;2023-02-12T04:54:35;103827.84;;;8.17;77.51
70407;BME280;57821;52.202;0.154;2023-02-12T04:57:02;103830.44;;;8.17;77.40
70407;BME280;57821;52.202;0.154;2023-02-12T04:59:28;103829.63;;;8.18;77.28
70407;BME280;57821;52.202;0.154;2023-02-12T05:01:55;103824.47;;;8.18;77.36
70407;BME280;57821;52.202;0.154;2023-02-12T05:04:21;103822.69;;;8.17;77.26
70407;BME280;57821;52.202;0.154;2023-02-12T05:06:48;103822.69;;;8.17;77.87
70407;BME280;57821;52.202;0.154;2023-02-12T05:09:17;103810.41;;;8.13;77.67
70407;BME280;57821;52.202;0.154;2023-02-12T05:11:44;103814.91;;;8.17;77.40
70407;BME280;57821;52.202;0.154;2023-02-12T05:14:11;103821.78;;;8.17;77.27
70407;BME280;57821;52.202;0.154;2023-02-12T05:16:37;103814.91;;;8.17;78.44
70407;BME280;57821;52.202;0.154;2023-02-12T05:19:04;103806.28;;;8.17;77.51
70407;BME280;57821;52.202;0.154;2023-02-12T05:21:31;103817.50;;;8.17;77.82
70407;BME280;57821;52.202;0.154;2023-02-12T05:23:57;103812.34;;;8.17;77.88
70407;BME280;57821;52.202;0.154;2023-02-12T05:26:24;103813.13;;;8.16;77.26
70407;BME280;57821;52.202;0.154;2023-02-12T05:28:50;103803.59;;;8.15;77.33
70407;BME280;57821;52.202;0.154;2023-02-12T05:31:18;103805.38;;;8.16;77.80
70407;BME280;57821;52.202;0.154;2023-02-12T05:33:47;103806.19;;;8.15;77.80
70407;BME280;57821;52.202;0.154;2023-02-12T05:36:21;103805.22;;;8.13;77.84
70407;BME280;57821;52.202;0.154;2023-02-12T05:38:49;103802.75;;;8.15;77.67
70407;BME280;57821;52.202;0.154;2023-02-12T05:41:21;103810.41;;;8.13;77.98
70407;BME280;57821;52.202;0.154;2023-02-12T05:43:49;103810.41;;;8.13;77.90
70407;BME280;57821;52.202;0.154;2023-02-12T05:46:17;103803.44;;;8.12;77.70
70407;BME280;57821;52.202;0.154;2023-02-12T05:48:44;103805.03;;;8.10;77.55
70407;BME280;57821;52.202;0.154;2023-02-12T05:51:19;103804.16;;;8.10;77.59
70407;BME280;57821;52.202;0.154;2023-02-12T05:53:47;103805.03;;;8.10;78.07
70407;BME280;57821;52.202;0.154;2023-02-12T05:56:20;103811.84;;;8.08;78.31
70407;BME280;57821;52.202;0.154;2023-02-12T05:58:51;103803.91;;;8.05;77.57
70407;BME280;57821;52.202;0.154;2023-02-12T06:01:24;103807.56;;;8.09;77.52
70407;BME280;57821;52.202;0.154;2023-02-12T06:03:51;103808.38;;;8.08;77.32
70407;BME280;57821;52.202;0.154;2023-02-12T06:06:18;103812.81;;;8.10;77.81
70407;BME280;57821;52.202;0.154;2023-02-12T06:08:48;103819.59;;;8.08;77.73
70407;BME280;57821;52.202;0.154;2023-02-12T06:11:16;103814.50;;;8.10;77.58
70407;BME280;57821;52.202;0.154;2023-02-12T06:13:42;103804.00;;;8.07;77.71
70407;BME280;57821;52.202;0.154;2023-02-12T06:16:22;103810.97;;;8.08;77.72
70407;BME280;57821;52.202;0.154;2023-02-12T06:18:49;103815.31;;;8.09;77.72
70407;BME280;57821;52.202;0.154;2023-02-12T06:21:17;103813.44;;;8.06;77.24
70407;BME280;57821;52.202;0.154;2023-02-12T06:23:44;103818.72;;;8.08;77.60
70407;BME280;57821;52.202;0.154;2023-02-12T06:26:11;103816.13;;;8.08;77.62
70407;BME280;57821;52.202;0.154;2023-02-12T06:28:37;103816.13;;;8.08;77.13
70407;BME280;57821;52.202;0.154;2023-02-12T06:31:04;103812.56;;;8.06;77.48
70407;BME280;57821;52.202;0.154;2023-02-12T06:33:31;103816.13;;;8.08;77.36
70407;BME280;57821;52.202;0.154;2023-02-12T06:35:57;103818.81;;;8.09;77.16
70407;BME280;57821;52.202;0.154;2023-02-12T06:38:27;103812.75;;;8.09;77.53
70407;BME280;57821;52.202;0.154;2023-02-12T06:40:54;103819.59;;;8.08;77.45
70407;BME280;57821;52.202;0.154;2023-02-12T06:43:20;103819.59;;;8.08;77.00
70407;BME280;57821;52.202;0.154;2023-02-12T06:45:47;103818.72;;;8.08;77.18
70407;BME280;57821;52.202;0.154;2023-02-12T06:48:13;103822.19;;;8.08;76.98
70407;BME280;57821;52.202;0.154;2023-02-12T06:50:40;103818.63;;;8.06;77.14
70407;BME280;57821;52.202;0.154;2023-02-12T06:53:06;103818.63;;;8.06;76.95
70407;BME280;57821;52.202;0.154;2023-02-12T06:55:33;103818.63;;;8.06;77.59
70407;BME280;57821;52.202;0.154;2023-02-12T06:58:00;103820.41;;;8.07;77.15
70407;BME280;57821;52.202;0.154;2023-02-12T07:00:26;103823.97;;;8.09;77.33
70407;BME280;57821;52.202;0.154;2023-02-12T07:02:54;103826.56;;;8.09;77.21
70407;BME280;57821;52.202;0.154;2023-02-12T07:05:21;103825.72;;;8.10;76.88
70407;BME280;57821;52.202;0.154;2023-02-12T07:07:48;103820.56;;;8.10;77.17
70407;BME280;57821;52.202;0.154;2023-02-12T07:10:15;103818.81;;;8.09;77.10
70407;BME280;57821;52.202;0.154;2023-02-12T07:12:42;103819.66;;;8.10;77.12
70407;BME280;57821;52.202;0.154;2023-02-12T07:15:09;103823.97;;;8.09;77.10
70407;BME280;57821;52.202;0.154;2023-02-12T07:17:36;103822.19;;;8.08;77.06
70407;BME280;57821;52.202;0.154;2023-02-12T07:20:03;103825.56;;;8.07;77.35
70407;BME280;57821;52.202;0.154;2023-02-12T07:22:29;103818.53;;;8.05;77.25
70407;BME280;57821;52.202;0.154;2023-02-12T07:24:56;103827.16;;;8.05;77.28
70407;BME280;57821;52.202;0.154;2023-02-12T07:27:22;103828.81;;;8.03;77.19
70407;BME280;57821;52.202;0.154;2023-02-12T07:29:49;103839.13;;;8.03;77.80
70407;BME280;57821;52.202;0.154;2023-02-12T07:32:15;103839.84;;;8.01;77.08
70407;BME280;57821;52.202;0.154;2023-02-12T07:34:42;103834.59;;;7.99;77.66
70407;BME280;57821;52.202;0.154;2023-02-12T07:37:08;103832.88;;;8.00;77.29
70407;BME280;57821;52.202;0.154;2023-02-12T07:39:35;103832.00;;;7.99;77.61
70407;BME280;57821;52.202;0.154;2023-02-12T07:42:02;103837.16;;;7.99;77.87
70407;BME280;57821;52.202;0.154;2023-02-12T07:44:28;103834.53;;;7.98;77.70
70407;BME280;57821;52.202;0.154;2023-02-12T07:46:55;103835.38;;;7.98;77.61
70407;BME280;57821;52.202;0.154;2023-02-12T07:49:21;103833.63;;;7.97;77.80
70407;BME280;57821;52.202;0.154;2023-02-12T07:51:48;103839.69;;;7.98;77.42
70407;BME280;57821;52.202;0.154;2023-02-12T07:54:15;103837.16;;;7.99;77.38
70407;BME280;57821;52.202;0.154;2023-02-12T07:56:43;103844.13;;;8.00;77.38
70407;BME280;57821;52.202;0.154;2023-02-12T07:59:11;103849.47;;;8.03;77.02
70407;BME280;57821;52.202;0.154;2023-02-12T08:01:40;103845.16;;;8.04;76.86
70407;BME280;57821;52.202;0.154;2023-02-12T08:04:13;103836.28;;;7.99;76.95
70407;BME280;57821;52.202;0.154;2023-02-12T08:06:42;103843.66;;;8.07;77.33
70407;BME280;57821;52.202;0.154;2023-02-12T08:09:11;103843.47;;;8.04;77.60
70407;BME280;57821;52.202;0.154;2023-02-12T08:11:39;103850.69;;;8.10;77.38
70407;BME280;57821;52.202;0.154;2023-02-12T08:14:07;103847.28;;;8.11;77.39
70407;BME280;57821;52.202;0.154;2023-02-12T08:16:38;103847.38;;;8.12;77.46
70407;BME280;57821;52.202;0.154;2023-02-12T08:19:06;103853.44;;;8.13;77.34
70407;BME280;57821;52.202;0.154;2023-02-12T08:21:49;103850.69;;;8.10;77.00
70407;BME280;57821;52.202;0.154;2023-02-12T08:24:15;103867.41;;;8.16;77.34
70407;BME280;57821;52.202;0.154;2023-02-12T08:26:42;103857.06;;;8.16;77.31
70407;BME280;57821;52.202;0.154;2023-02-12T08:29:17;103856.13;;;8.14;77.43
70407;BME280;57821;52.202;0.154;2023-02-12T08:31:46;103852.66;;;8.14;77.39
70407;BME280;57821;52.202;0.154;2023-02-12T08:34:18;103853.59;;;8.16;77.17
70407;BME280;57821;52.202;0.154;2023-02-12T08:36:46;103868.66;;;8.23;77.23
70407;BME280;57821;52.202;0.154;2023-02-12T08:39:15;103869.53;;;8.23;77.22
70407;BME280;57821;52.202;0.154;2023-02-12T08:41:43;103865.34;;;8.25;76.48
70407;BME280;57821;52.202;0.154;2023-02-12T08:44:11;103867.19;;;8.28;77.14
70407;BME280;57821;52.202;0.154;2023-02-12T08:46:41;103853.13;;;8.23;76.24
70407;BME280;57821;52.202;0.154;2023-02-12T08:49:12;103852.44;;;8.25;76.67
70407;BME280;57821;52.202;0.154;2023-02-12T08:51:44;103863.13;;;8.32;77.13
70407;BME280;57821;52.202;0.154;2023-02-12T08:54:14;103861.34;;;8.31;76.73
70407;BME280;57821;52.202;0.154;2023-02-12T08:56:41;103862.59;;;8.37;76.83
70407;BME280;57821;52.202;0.154;2023-02-12T08:59:09;103877.34;;;8.40;76.56
70407;BME280;57821;52.202;0.154;2023-02-12T09:01:37;103871.47;;;8.42;76.61
70407;BME280;57821;52.202;0.154;2023-02-12T09:04:05;103874.16;;;8.44;76.50
70407;BME280;57821;52.202;0.154;2023-02-12T09:06:33;103872.53;;;8.46;76.31
70407;BME280;57821;52.202;0.154;2023-02-12T09:09:00;103875.19;;;8.47;76.01
70407;BME280;57821;52.202;0.154;2023-02-12T09:11:28;103873.59;;;8.49;76.65
70407;BME280;57821;52.202;0.154;2023-02-12T09:14:00;103870.19;;;8.50;76.41
70407;BME280;57821;52.202;0.154;2023-02-12T09:16:27;103871.25;;;8.54;76.58
70407;BME280;57821;52.202;0.154;2023-02-12T09:18:54;103869.66;;;8.56;75.93
70407;BME280;57821;52.202;0.154;2023-02-12T09:21:21;103867.13;;;8.57;75.91
70407;BME280;57821;52.202;0.154;2023-02-12T09:23:48;103870.59;;;8.58;75.67
70407;BME280;57821;52.202;0.154;2023-02-12T09:26:17;103857.75;;;8.59;75.47
70407;BME280;57821;52.202;0.154;2023-02-12T09:28:44;103861.38;;;8.63;75.43
70407;BME280;57821;52.202;0.154;2023-02-12T09:31:45;103862.50;;;8.68;75.46
70407;BME280;57821;52.202;0.154;2023-02-12T09:34:05;103843.44;;;8.66;75.33
70407;BME280;57821;52.202;0.154;2023-02-12T09:36:32;103853.31;;;8.73;75.47
70407;BME280;57821;52.202;0.154;2023-02-12T09:38:59;103851.88;;;8.78;75.62
70407;BME280;57821;52.202;0.154;2023-02-12T09:44:16;103849.50;;;8.83;75.10
70407;BME280;57821;52.202;0.154;2023-02-12T09:52:42;103866.56;;;8.95;74.60
70407;BME280;57821;52.202;0.154;2023-02-12T09:55:17;103864.63;;;8.91;74.94
70407;BME280;57821;52.202;0.154;2023-02-12T09:57:45;103858.94;;;8.98;74.84
70407;BME280;57821;52.202;0.154;2023-02-12T10:00:20;103862.28;;;8.96;74.57
70407;BME280;57821;52.202;0.154;2023-02-12T10:02:50;103858.06;;;8.98;73.92
70407;BME280;57821;52.202;0.154;2023-02-12T10:05:23;103868.81;;;9.05;74.20
70407;BME280;57821;52.202;0.154;2023-02-12T10:08:09;103868.09;;;9.08;74.04
70407;BME280;57821;52.202;0.154;2023-02-12T10:10:49;103869.94;;;9.11;74.23
70407;BME280;57821;52.202;0.154;2023-02-12T10:13:41;103858.59;;;9.08;73.61
70407;BME280;57821;52.202;0.154;2023-02-12T10:21:58;103861.03;;;9.22;74.56
70407;BME280;57821;52.202;0.154;2023-02-12T10:27:14;103861.09;;;9.23;74.59
70407;BME280;57821;52.202;0.154;2023-02-12T10:29:44;103871.78;;;9.29;74.54
70407;BME280;57821;52.202;0.154;2023-02-12T10:32:30;103853.47;;;9.26;74.24
70407;BME280;57821;52.202;0.154;2023-02-12T10:34:59;103859.06;;;9.34;74.60
70407;BME280;57821;52.202;0.154;2023-02-12T10:37:39;103864.41;;;9.37;74.85
70407;BME280;57821;52.202;0.154;2023-02-12T10:42:53;103865.53;;;9.42;73.93
70407;BME280;57821;52.202;0.154;2023-02-12T10:45:35;103861.16;;;9.41;73.99
70407;BME280;57821;52.202;0.154;2023-02-12T10:48:36;103859.53;;;9.43;73.53
70407;BME280;57821;52.202;0.154;2023-02-12T10:53:38;103852.72;;;9.45;73.62
70407;BME280;57821;52.202;0.154;2023-02-12T10:58:58;103865.03;;;9.49;73.70
70407;BME280;57821;52.202;0.154;2023-02-12T11:01:29;103857.16;;;9.47;73.69
70407;BME280;57821;52.202;0.154;2023-02-12T11:03:59;103848.66;;;9.50;74.19
70407;BME280;57821;52.202;0.154;2023-02-12T11:07:02;103855.91;;;9.57;73.60
70407;BME280;57821;52.202;0.154;2023-02-12T11:09:40;103866.56;;;9.63;72.83
70407;BME280;57821;52.202;0.154;2023-02-12T11:12:25;103861.56;;;9.66;73.10
70407;BME280;57821;52.202;0.154;2023-02-12T11:14:57;103854.59;;;9.65;72.60
70407;BME280;57821;52.202;0.154;2023-02-12T11:17:44;103846.06;;;9.68;72.45
70407;BME280;57821;52.202;0.154;2023-02-12T11:20:23;103851.75;;;9.78;72.47
70407;BME280;57821;52.202;0.154;2023-02-12T11:23:00;103859.78;;;9.83;71.96
70407;BME280;57821;52.202;0.154;2023-02-12T11:25:34;103853.72;;;9.82;72.54
70407;BME280;57821;52.202;0.154;2023-02-12T11:28:14;103854.94;;;9.90;71.97
70407;BME280;57821;52.202;0.154;2023-02-12T11:30:53;103859.50;;;9.95;70.99
70407;BME280;57821;52.202;0.154;2023-02-12T11:33:30;103847.63;;;10.00;71.42
70407;BME280;57821;52.202;0.154;2023-02-12T11:38:32;103846.28;;;10.08;71.15
70407;BME280;57821;52.202;0.154;2023-02-12T11:41:05;103840.56;;;10.15;71.53
70407;BME280;57821;52.202;0.154;2023-02-12T11:43:33;103841.09;;;10.25;71.55
70407;BME280;57821;52.202;0.154;2023-02-12T11:46:01;103840.78;;;10.37;71.32
70407;BME280;57821;52.202;0.154;2023-02-12T11:48:32;103844.63;;;10.45;70.31
70407;BME280;57821;52.202;0.154;2023-02-12T11:51:02;103850.91;;;10.50;70.24
70407;BME280;57821;52.202;0.154;2023-02-12T11:53:33;103838.91;;;10.52;69.50
70407;BME280;57821;52.202;0.154;2023-02-12T11:56:04;103838.09;;;10.53;69.02
70407;BME280;57821;52.202;0.154;2023-02-12T11:58:31;103834.50;;;10.51;69.74
70407;BME280;57821;52.202;0.154;2023-02-12T12:04:03;103831.81;;;10.48;69.22
70407;BME280;57821;52.202;0.154;2023-02-12T12:06:54;103829.06;;;10.45;69.04
70407;BME280;57821;52.202;0.154;2023-02-12T12:09:57;103834.13;;;10.42;69.22
70407;BME280;57821;52.202;0.154;2023-02-12T12:12:44;103840.25;;;10.44;69.25
70407;BME280;57821;52.202;0.154;2023-02-12T12:21:08;103822.91;;;10.43;69.45
70407;BME280;57821;52.202;0.154;2023-02-12T12:23:45;103817.03;;;10.47;69.77
70407;BME280;57821;52.202;0.154;2023-02-12T12:26:28;103815.38;;;10.49;69.49
70407;BME280;57821;52.202;0.154;2023-02-12T12:29:13;103814.03;;;10.57;69.09
70407;BME280;57821;52.202;0.154;2023-02-12T12:31:45;103800.88;;;10.53;69.21
70407;BME280;57821;52.202;0.154;2023-02-12T12:34:21;103815.66;;;10.55;69.01
70407;BME280;57821;52.202;0.154;2023-02-12T12:53:34;103801.25;;;10.43;68.68
70407;BME280;57821;52.202;0.154;2023-02-12T12:59:01;103804.63;;;10.40;69.75
70407;BME280;57821;52.202;0.154;2023-02-12T13:01:52;103787.97;;;10.35;69.42
70407;BME280;57821;52.202;0.154;2023-02-12T13:04:27;103788.78;;;10.34;69.20
70407;BME280;57821;52.202;0.154;2023-02-12T13:09:57;103787.88;;;10.34;69.78
70407;BME280;57821;52.202;0.154;2023-02-12T13:12:40;103787.88;;;10.34;69.80
70407;BME280;57821;52.202;0.154;2023-02-12T13:15:28;103794.94;;;10.36;69.21
70407;BME280;57821;52.202;0.154;2023-02-12T13:18:06;103776.78;;;10.36;69.86
70407;BME280;57821;52.202;0.154;2023-02-12T13:23:45;103769.66;;;10.32;70.06
70407;BME280;57821;52.202;0.154;2023-02-12T13:26:32;103768.16;;;10.37;69.66
70407;BME280;57821;52.202;0.154;2023-02-12T13:29:28;103761.25;;;10.38;69.94
70407;BME280;57821;52.202;0.154;2023-02-12T13:32:05;103757.66;;;10.34;70.14
70407;BME280;57821;52.202;0.154;2023-02-12T13:34:36;103761.31;;;10.39;69.95
70407;BME280;57821;52.202;0.154;2023-02-12T13:37:05;103762.09;;;10.37;70.12
70407;BME280;57821;52.202;0.154;2023-02-12T13:39:41;103768.03;;;10.34;69.92
70407;BME280;57821;52.202;0.154;2023-02-12T13:42:34;103755.88;;;10.33;70.42
70407;BME280;57821;52.202;0.154;2023-02-12T13:52:53;103746.19;;;10.29;70.51
70407;BME280;57821;52.202;0.154;2023-02-12T14:01:01;103740.03;;;10.27;70.99
70407;BME280;57821;52.202;0.154;2023-02-12T14:03:29;103750.56;;;10.30;70.96
70407;BME280;57821;52.202;0.154;2023-02-12T14:06:17;103733.03;;;10.24;70.50
70407;BME280;57821;52.202;0.154;2023-02-12T14:08:50;103741.88;;;10.29;71.10
70407;BME280;57821;52.202;0.154;2023-02-12T14:11:19;103744.31;;;10.26;71.02
70407;BME280;57821;52.202;0.154;2023-02-12T14:13:54;103749.78;;;10.33;71.50
70407;BME280;57821;52.202;0.154;2023-02-12T14:22:13;103724.91;;;10.36;71.02
70407;BME280;57821;52.202;0.154;2023-02-12T14:25:09;103726.66;;;10.37;71.62
70407;BME280;57821;52.202;0.154;2023-02-12T14:27:49;103718.03;;;10.38;71.24
70407;BME280;57821;52.202;0.154;2023-02-12T14:35:38;103710.34;;;10.40;71.12
70407;BME280;57821;52.202;0.154;2023-02-12T14:43:03;103692.81;;;10.34;71.12
70407;BME280;57821;52.202;0.154;2023-02-12T14:45:47;103700.72;;;10.37;70.54
70407;BME280;57821;52.202;0.154;2023-02-12T14:51:35;103690.91;;;10.30;70.71
70407;BME280;57821;52.202;0.154;2023-02-12T14:54:04;103698.97;;;10.36;70.44
70407;BME280;57821;52.202;0.154;2023-02-12T14:56:45;103686.63;;;10.31;70.46
70407;BME280;57821;52.202;0.154;2023-02-12T14:59:21;103690.84;;;10.28;70.41
70407;BME280;57821;52.202;0.154;2023-02-12T15:01:49;103689.78;;;10.25;70.27
70407;BME280;57821;52.202;0.154;2023-02-12T15:04:25;103681.09;;;10.23;70.10
70407;BME280;57821;52.202;0.154;2023-02-12T15:06:56;103695.94;;;10.27;70.65
70407;BME280;57821;52.202;0.154;2023-02-12T15:09:34;103692.38;;;10.25;70.17
70407;BME280;57821;52.202;0.154;2023-02-12T15:12:09;103676.59;;;10.19;71.00
70407;BME280;57821;52.202;0.154;2023-02-12T15:14:40;103685.31;;;10.21;70.50
70407;BME280;57821;52.202;0.154;2023-02-12T15:17:19;103689.38;;;10.16;70.80
70407;BME280;57821;52.202;0.154;2023-02-12T15:19:59;103682.94;;;10.08;70.73
70407;BME280;57821;52.202;0.154;2023-02-12T15:22:41;103685.69;;;10.11;71.21
70407;BME280;57821;52.202;0.154;2023-02-12T15:25:27;103683.91;;;10.10;70.89
70407;BME280;57821;52.202;0.154;2023-02-12T15:27:56;103675.16;;;10.08;70.74